Houghton County Memorial Airport

Airport
ICAO code: 
KCMX
Summary
ICAO Region: 
NAM
Territory: 
Location: 
Hancock / Calumet, Michigan,
Coordinates: 
Aerial View: 
47° 10' 5.998" N, 88° 29' 20" W
Airport CFIT: 
Altimeter Temperature Error Correction
Airport WX: 
Lake Effect Snow
Metar
Observation
KCMX 070753Z AUTO 28008G16KT 4SM -SN OVC031 M12/M17 A3006 RMK AO2 SLP204 T11171167 PNO
Station
Hancock, Houghton County Memorial Airport
Date/Time
2021-12-07 07:53:00
Wind direction
280°
Wind speed
08 kts
Lowest cloud amount
overcast
Temperature
-11.7°C
Dew point
-16.7°C
Humidity
66%
Weather condition
light snow

Description

Houghton County Memorial Airport is a public use airport located 7 km southwest of the central business district of Calumet, a village in Houghton County, Michigan.

Climatology

Humid Continental climate (Köppen climate classification Dfb) - Variable weather patterns and a large seasonal temperature variance. Summers are often warm and humid with frequent thunderstorms and winters can be very cold with frequent snowfall and persistent snow cover.

Runways

Designator Length Width Surface Rops
7/25 1584 30 ASP Yes/Yes
13/31 1982 46 ASP Yes/Yes
Airport map: 
Aerial View: 

SKYbrary Partners:

Safety knowledge contributed by: